28 maja 2022

Czas Kod Pogoda Temp. Widoczność Sufit Wiatr METAR/SPECI
5:30 am
V
70 °F 6¼ mi+ - 300° 300° 14 kt METAR LFMP 280330Z AUTO 30014KT CAVOK 21/11 Q1014 BECMG 30017G27KT
5:00 am
V
70 °F 6¼ mi+ - 300° 300° 15 kt METAR LFMP 280300Z AUTO 30015KT CAVOK 21/12 Q1015 BECMG 30017G27KT
4:30 am
V
72 °F 6¼ mi+ - 300° 300° 18 kt METAR LFMP 280230Z AUTO 30018KT CAVOK 22/12 Q1015
4:00 am
V
72 °F 6¼ mi+ - 300° 300° 17 kt METAR LFMP 280200Z AUTO 30017KT CAVOK 22/12 Q1016
3:30 am
V
72 °F 6¼ mi+ - 300° 300° 18 kt METAR LFMP 280130Z AUTO 30018KT CAVOK 22/12 Q1016
3:00 am
V
72 °F 6¼ mi+ - 300° 300° 16 kt METAR LFMP 280100Z AUTO 30016KT CAVOK 22/12 Q1016
2:30 am
V
72 °F 6¼ mi+ - 300° 300° 17 kt METAR LFMP 280030Z AUTO 30017KT CAVOK 22/12 Q1017
2:00 am
V
73 °F 6¼ mi+ - 300° 300° 17 kt METAR LFMP 280000Z AUTO 30017KT CAVOK 23/12 Q1017
1:30 am
V
73 °F 6¼ mi+ - 300° 300° 19 - 30 kt METAR LFMP 272330Z AUTO 30019G30KT CAVOK 23/12 Q1017
1:00 am
V
73 °F 6¼ mi+ - 300° 300° 18 kt METAR LFMP 272300Z AUTO 30018KT CAVOK 23/12 Q1018
12:30 am
V
73 °F 6¼ mi+ - 300° 300° 20 kt METAR LFMP 272230Z AUTO 30020KT CAVOK 23/12 Q1018
12:00 am
V
73 °F 6¼ mi+ - 300° 300° 21 kt METAR LFMP 272200Z AUTO 30021KT CAVOK 23/12 Q1018

27 maja 2022

Czas Kod Pogoda Temp. Widoczność Sufit Wiatr METAR/SPECI
11:30 pm
V
73 °F 6¼ mi+ - 300° 300° 22 kt METAR LFMP 272130Z AUTO 30022KT CAVOK 23/12 Q1018 BECMG 31020G35KT
11:00 pm
V
73 °F 6¼ mi+ - 300° 300° 21 kt METAR LFMP 272100Z AUTO 30021KT CAVOK 23/12 Q1018 BECMG 31020G35KT
10:30 pm
V
73 °F 6¼ mi+ - 300° 300° 20 - 31 kt METAR LFMP 272030Z AUTO 30020G31KT CAVOK 23/11 Q1018 NOSIG
10:00 pm
V
75 °F 6¼ mi+ - 300° 300° 17 - 28 kt METAR LFMP 272000Z AUTO 30017G28KT CAVOK 24/11 Q1018 NOSIG
9:30 pm
V
75 °F 6¼ mi+ - 300° 300° 18 - 29 kt METAR LFMP 271930Z AUTO 30018G29KT CAVOK 24/11 Q1018 NOSIG
9:00 pm
V
75 °F 6¼ mi+ - 310° 310° 17 - 29 kt METAR LFMP 271900Z AUTO 31017G29KT CAVOK 24/11 Q1018 NOSIG
8:30 pm
V
77 °F 6¼ mi+ - 310° 310° 16 - 26 kt METAR LFMP 271830Z AUTO 31016G26KT 280V350 CAVOK 25/12 Q1017 NOSIG
8:00 pm
V
77 °F 6¼ mi+ - 300° 300° 19 - 29 kt METAR LFMP 271800Z AUTO 30019G29KT CAVOK 25/12 Q1017 NOSIG
7:30 pm
V
79 °F 6¼ mi+ - 310° 310° 17 - 29 kt METAR LFMP 271730Z AUTO 31017G29KT CAVOK 26/11 Q1017 NOSIG
7:00 pm
V
79 °F 6¼ mi+ - 320° 320° 16 kt METAR LFMP 271700Z AUTO 32016KT CAVOK 26/11 Q1017 BECMG 31020G35KT
6:30 pm
V
81 °F 6¼ mi+ - 310° 310° 17 kt METAR LFMP 271630Z AUTO 31017KT 280V340 CAVOK 27/11 Q1017 BECMG 31020G35KT
6:00 pm
V
81 °F 6¼ mi+ - 320° 320° 16 kt METAR LFMP 271600Z AUTO 32016KT 290V350 CAVOK 27/11 Q1018 BECMG 31020G35KT
5:30 pm
V
81 °F 6¼ mi+ - 320° 320° 16 kt METAR LFMP 271530Z AUTO 32016KT CAVOK 27/11 Q1018 BECMG 31020G35KT
5:00 pm
V
82 °F 6¼ mi+ - 320° 320° 16 kt METAR LFMP 271500Z AUTO 32016KT CAVOK 28/11 Q1018 BECMG 31020G35KT
4:30 pm
V
82 °F 6¼ mi+ - 310° 310° 16 kt METAR LFMP 271430Z AUTO 31016KT CAVOK 28/11 Q1019 BECMG 31020G35KT
4:00 pm
V
82 °F 6¼ mi+ - 310° 310° 16 kt METAR LFMP 271400Z AUTO 31016KT CAVOK 28/10 Q1019 BECMG 32020G35KT
3:30 pm
V
81 °F 6¼ mi+ - 330° 330° 16 kt METAR LFMP 271330Z AUTO 33016KT CAVOK 27/10 Q1019 BECMG 32020G35KT
3:00 pm
V
81 °F 6¼ mi+ - 320° 320° 16 kt METAR LFMP 271300Z AUTO 32016KT CAVOK 27/11 Q1019 BECMG 32020G35KT
2:30 pm
V
81 °F 6¼ mi+ - 310° 310° 14 kt METAR LFMP 271230Z AUTO 31014KT 280V340 CAVOK 27/11 Q1020 BECMG 32020G35KT
2:00 pm
V
79 °F 6¼ mi+ - 300° 300° 20 kt METAR LFMP 271200Z AUTO 30020KT CAVOK 26/10 Q1020 BECMG 32020G35KT
1:30 pm
V
79 °F 6¼ mi+ - 300° 300° 20 kt METAR LFMP 271130Z AUTO 30020KT CAVOK 26/11 Q1020 BECMG 32020G35KT
1:00 pm
V
77 °F 6¼ mi+ - 300° 300° 18 kt METAR LFMP 271100Z AUTO 30018KT 280V340 CAVOK 25/11 Q1020 BECMG 32020G35KT
12:30 pm
V
75 °F 6¼ mi+ - 310° 310° 15 kt METAR LFMP 271030Z AUTO 31015KT CAVOK 24/11 Q1021 BECMG 32020G35KT
12:00 pm
V
73 °F 6¼ mi+ - 300° 300° 19 kt METAR LFMP 271000Z AUTO 30019KT CAVOK 23/10 Q1021 BECMG 32020G35KT
11:30 am
V
72 °F 6¼ mi+ - 300° 300° 19 kt METAR LFMP 270930Z AUTO 30019KT CAVOK 22/10 Q1021 BECMG 32020G35KT
11:00 am
V
72 °F 6¼ mi+ - 300° 300° 17 kt METAR LFMP 270900Z AUTO 30017KT CAVOK 22/10 Q1021 BECMG 32020G35KT
10:30 am
V
70 °F 6¼ mi+ - 300° 300° 16 kt METAR LFMP 270830Z AUTO 30016KT CAVOK 21/10 Q1022 BECMG 32020G35KT
10:00 am
V
70 °F 6¼ mi+ - 310° 310° 15 kt METAR LFMP 270800Z AUTO 31015KT 270V340 CAVOK 21/10 Q1022 BECMG 32020G35KT
9:30 am
V
68 °F 6¼ mi+ - 320° 320° 14 kt METAR LFMP 270730Z AUTO 32014KT CAVOK 20/10 Q1021 BECMG 32020G35KT
9:00 am
V
66 °F 6¼ mi+ - 320° 320° 14 kt METAR LFMP 270700Z AUTO 32014KT 290V350 CAVOK 19/10 Q1021 BECMG 32020G35KT
8:30 am
V
66 °F 6¼ mi+ - 320° 320° 15 kt METAR LFMP 270630Z AUTO 32015KT CAVOK 19/10 Q1021 BECMG 32020G35KT
8:00 am
V
64 °F 6¼ mi+ - 320° 320° 13 kt METAR LFMP 270600Z AUTO 32013KT CAVOK 18/10 Q1021 BECMG 32020G35KT
7:30 am
V
64 °F 6¼ mi+ - 320° 320° 15 kt METAR LFMP 270530Z AUTO 32015KT 290V350 CAVOK 18/10 Q1021 BECMG 32020G35KT
7:00 am
V
64 °F 6¼ mi+ - 320° 320° 16 kt METAR LFMP 270500Z AUTO 32016KT 280V360 CAVOK 18/10 Q1021 BECMG 32020G35KT
6:30 am
V
64 °F 6¼ mi+ - 310° 310° 16 kt METAR LFMP 270430Z AUTO 31016KT CAVOK 18/10 Q1021 BECMG 32020G35KT
6:00 am
V
64 °F 6¼ mi+ - 310° 310° 15 - 28 kt METAR LFMP 270400Z AUTO 31015G28KT CAVOK 18/10 Q1021 NOSIG
5:30 am
V
64 °F 6¼ mi+ - 310° 310° 13 kt METAR LFMP 270330Z AUTO 31013KT 280V340 CAVOK 18/10 Q1021 BECMG 32020G35KT
5:00 am
V
64 °F 6¼ mi+ - 320° 320° 14 - 24 kt METAR LFMP 270300Z AUTO 32014G24KT 280V340 CAVOK 18/10 Q1021 BECMG 32020G35KT
4:30 am
V
64 °F 6¼ mi+ - 320° 320° 16 kt METAR LFMP 270230Z AUTO 32016KT 290V350 CAVOK 18/11 Q1021
4:00 am
V
64 °F 6¼ mi+ - 320° 320° 14 - 24 kt METAR LFMP 270200Z AUTO 32014G24KT CAVOK 18/11 Q1021
3:30 am
V
64 °F 6¼ mi+ - 320° 320° 14 kt METAR LFMP 270130Z AUTO 32014KT CAVOK 18/11 Q1022
3:00 am
V
64 °F 6¼ mi+ - 310° 310° 15 kt METAR LFMP 270100Z AUTO 31015KT 280V340 CAVOK 18/11 Q1022
2:30 am
V
64 °F 6¼ mi+ - 310° 310° 16 - 26 kt METAR LFMP 270030Z AUTO 31016G26KT 290V350 9999 FEW098 18/11 Q1022
2:00 am
V
66 °F 6¼ mi+ - 310° 310° 15 - 25 kt METAR LFMP 270000Z AUTO 31015G25KT 9999 SCT094 19/11 Q1022
1:30 am
V
66 °F 6¼ mi+ - 310° 310° 15 kt METAR LFMP 262330Z AUTO 31015KT 280V340 CAVOK 19/11 Q1022
1:00 am
V
66 °F 6¼ mi+ - 310° 310° 14 kt METAR LFMP 262300Z AUTO 31014KT 280V340 CAVOK 19/11 Q1023
12:30 am
V
66 °F 6¼ mi+ - 310° 310° 14 kt METAR LFMP 262230Z AUTO 31014KT 290V350 CAVOK 19/11 Q1023
12:00 am
V
66 °F 6¼ mi+ - 310° 310° 16 - 28 kt METAR LFMP 262200Z AUTO 31016G28KT 290V350 CAVOK 19/11 Q1022

26 maja 2022

Czas Kod Pogoda Temp. Widoczność Sufit Wiatr METAR/SPECI
11:30 pm
V
66 °F 6¼ mi+ - 310° 310° 17 kt METAR LFMP 262130Z AUTO 31017KT 9999 FEW096 SCT130 19/11 Q1022 TEMPO 30022G36KT
11:00 pm
V
68 °F 6¼ mi+ - 310° 310° 18 kt METAR LFMP 262100Z AUTO 31018KT 9999 FEW094 20/11 Q1022 TEMPO 30022G36KT
10:30 pm
V
68 °F 6¼ mi+ 13.000 ft 310° 310° 22 - 33 kt METAR LFMP 262030Z AUTO 31022G33KT 9999 SCT092 BKN130 20/11 Q1022 NOSIG
10:00 pm
V
68 °F 6¼ mi+ 13.000 ft 310° 310° 21 - 34 kt METAR LFMP 262000Z AUTO 31021G34KT 9999 SCT092 OVC130 20/11 Q1022 NOSIG
9:30 pm
V
68 °F 6¼ mi+ 13.000 ft 300° 300° 19 kt METAR LFMP 261930Z AUTO 30019KT 9999 FEW096 BKN130 20/10 Q1022 TEMPO 30022G36KT
9:00 pm
V
68 °F 6¼ mi+ 12.000 ft 300° 300° 21 kt METAR LFMP 261900Z AUTO 30021KT 9999 FEW100 BKN120 20/10 Q1022 TEMPO 30022G36KT
8:30 pm
V
70 °F 6¼ mi+ - 300° 300° 23 kt METAR LFMP 261830Z AUTO 30023KT 280V340 CAVOK 21/10 Q1021 TEMPO 30022G36KT
8:00 pm
V
72 °F 6¼ mi+ - 300° 300° 23 - 36 kt METAR LFMP 261800Z AUTO 30023G36KT 9999 FEW096 SCT130 22/10 Q1021 NOSIG
7:30 pm
V
70 °F 6¼ mi+ - 300° 300° 25 kt METAR LFMP 261730Z AUTO 30025KT 9999 FEW100 SCT130 21/10 Q1021 TEMPO 30022G36KT
7:00 pm
V
72 °F 6¼ mi+ - 300° 300° 24 - 39 kt METAR LFMP 261700Z AUTO 30024G39KT 9999 FEW100 22/10 Q1021 NOSIG
6:30 pm
V
73 °F 6¼ mi+ - 310° 310° 22 - 35 kt METAR LFMP 261630Z AUTO 31022G35KT CAVOK 23/10 Q1021 NOSIG
6:00 pm
V
73 °F 6¼ mi+ - 300° 300° 27 - 38 kt METAR LFMP 261600Z AUTO 30027G38KT CAVOK 23/10 Q1021 NOSIG
5:30 pm
V
75 °F 6¼ mi+ - 300° 300° 22 kt METAR LFMP 261530Z AUTO 30022KT CAVOK 24/10 Q1021 TEMPO 30022G36KT
5:00 pm
V
75 °F 6¼ mi+ - 310° 310° 20 - 32 kt METAR LFMP 261500Z AUTO 31020G32KT CAVOK 24/10 Q1021 NOSIG
4:30 pm
V
75 °F 6¼ mi+ - 300° 300° 21 - 33 kt METAR LFMP 261430Z AUTO 30021G33KT CAVOK 24/10 Q1021 NOSIG
4:00 pm
V
75 °F 6¼ mi+ - 300° 300° 23 - 35 kt METAR LFMP 261400Z AUTO 30023G35KT CAVOK 24/09 Q1021 NOSIG
3:30 pm
V
73 °F 6¼ mi+ - 300° 300° 24 - 35 kt METAR LFMP 261330Z AUTO 30024G35KT CAVOK 23/09 Q1022 NOSIG
3:00 pm
V
73 °F 6¼ mi+ - 290° 290° 23 kt METAR LFMP 261300Z AUTO 29023KT CAVOK 23/09 Q1022 TEMPO 30022G36KT
2:30 pm
V
73 °F 6¼ mi+ - 300° 300° 24 - 35 kt METAR LFMP 261230Z AUTO 30024G35KT CAVOK 23/09 Q1023 NOSIG
2:00 pm
V
73 °F 6¼ mi+ - 310° 310° 21 - 36 kt METAR LFMP 261200Z AUTO 31021G36KT CAVOK 23/09 Q1023 NOSIG
1:30 pm
V
72 °F 6¼ mi+ - 300° 300° 24 - 37 kt METAR LFMP 261130Z AUTO 30024G37KT CAVOK 22/08 Q1023 NOSIG
1:00 pm
V
72 °F 6¼ mi+ - 310° 310° 22 - 33 kt METAR LFMP 261100Z AUTO 31022G33KT 280V340 CAVOK 22/08 Q1023 NOSIG
12:30 pm
V
72 °F 6¼ mi+ - 310° 310° 20 kt METAR LFMP 261030Z AUTO 31020KT CAVOK 22/08 Q1024 TEMPO 30022G36KT
12:00 pm
V
70 °F 6¼ mi+ - 310° 310° 22 - 33 kt METAR LFMP 261000Z AUTO 31022G33KT CAVOK 21/09 Q1024 NOSIG
11:30 am
V
70 °F 6¼ mi+ - 300° 300° 18 kt METAR LFMP 260930Z AUTO 30018KT CAVOK 21/09 Q1024 TEMPO 30022G36KT
11:00 am
V
68 °F 6¼ mi+ - 300° 300° 24 - 35 kt METAR LFMP 260900Z AUTO 30024G35KT 9999 FEW040 20/09 Q1024 NOSIG
10:30 am
V
68 °F 6¼ mi+ - 300° 300° 25 - 35 kt METAR LFMP 260830Z AUTO 30025G35KT CAVOK 20/10 Q1023 NOSIG
10:00 am
V
66 °F 6¼ mi+ - 300° 300° 20 - 33 kt METAR LFMP 260800Z AUTO 30020G33KT CAVOK 19/09 Q1024 NOSIG
9:30 am
V
66 °F 6¼ mi+ - 300° 300° 20 - 31 kt METAR LFMP 260730Z AUTO 30020G31KT 9999 FEW041 19/09 Q1024 NOSIG
9:00 am
V
64 °F 6¼ mi+ - 300° 300° 17 kt METAR LFMP 260700Z AUTO 30017KT CAVOK 18/09 Q1024 BECMG 30020G35KT
8:30 am
V
63 °F 6¼ mi+ - 300° 300° 16 kt METAR LFMP 260630Z AUTO 30016KT CAVOK 17/09 Q1024 BECMG 30020G35KT
8:00 am
V
63 °F 6¼ mi+ - 300° 300° 15 kt METAR LFMP 260600Z AUTO 30015KT CAVOK 17/09 Q1023 BECMG 30020G35KT
7:30 am
V
61 °F 6¼ mi+ - 300° 300° 17 kt METAR LFMP 260530Z AUTO 30017KT CAVOK 16/09 Q1023 BECMG 30020G35KT
7:00 am
V
61 °F 6¼ mi+ - 300° 300° 16 kt METAR LFMP 260500Z AUTO 30016KT CAVOK 16/09 Q1023 BECMG 30020G35KT
6:30 am
V
61 °F 6¼ mi+ - 300° 300° 15 kt METAR LFMP 260430Z AUTO 30015KT CAVOK 16/09 Q1023 BECMG 30020G35KT
6:00 am
V
61 °F 6¼ mi+ - 290° 290° 15 - 25 kt METAR LFMP 260400Z AUTO 29015G25KT CAVOK 16/09 Q1023 BECMG 30020G35KT
5:30 am
V
61 °F 6¼ mi+ - 300° 300° 15 kt METAR LFMP 260330Z AUTO 30015KT CAVOK 16/09 Q1023 BECMG 30020G35KT
5:00 am
V
61 °F 6¼ mi+ - 300° 300° 14 kt METAR LFMP 260300Z AUTO 30014KT CAVOK 16/09 Q1023 BECMG 30020G35KT
4:30 am
V
63 °F 6¼ mi+ - 310° 310° 13 kt METAR LFMP 260230Z AUTO 31013KT CAVOK 17/09 Q1023
4:00 am
V
63 °F 6¼ mi+ - 310° 310° 13 kt METAR LFMP 260200Z AUTO 31013KT CAVOK 17/09 Q1023
3:30 am
V
63 °F 6¼ mi+ - 310° 310° 17 kt METAR LFMP 260130Z AUTO 31017KT CAVOK 17/09 Q1023
3:00 am
V
63 °F 6¼ mi+ - 300° 300° 18 kt METAR LFMP 260100Z AUTO 30018KT 280V340 CAVOK 17/09 Q1022
2:30 am
V
64 °F 6¼ mi+ - 300° 300° 20 kt METAR LFMP 260030Z AUTO 30020KT CAVOK 18/09 Q1022
2:00 am
V
64 °F 6¼ mi+ - 300° 300° 21 - 32 kt METAR LFMP 260000Z AUTO 30021G32KT CAVOK 18/09 Q1022
1:30 am
V
64 °F 6¼ mi+ - 300° 300° 19 - 29 kt METAR LFMP 252330Z AUTO 30019G29KT CAVOK 18/09 Q1022
1:00 am
V
64 °F 6¼ mi+ 9.000 ft 300° 300° 18 - 30 kt METAR LFMP 252300Z AUTO 30018G30KT 9999 BKN090 BKN120 18/09 Q1022
12:30 am
V
64 °F 6¼ mi+ 9.200 ft 300° 300° 19 kt METAR LFMP 252230Z AUTO 30019KT 9999 BKN092 BKN120 18/09 Q1023
12:00 am
V
66 °F 6¼ mi+ 9.000 ft 290° 290° 20 - 32 kt METAR LFMP 252200Z AUTO 29020G32KT 9999 OVC090 19/09 Q1022

25 maja 2022

Czas Kod Pogoda Temp. Widoczność Sufit Wiatr METAR/SPECI
11:30 pm
V
66 °F 6¼ mi+ 9.000 ft 300° 300° 21 kt METAR LFMP 252130Z AUTO 30021KT 9999 OVC090 19/09 Q1022 BECMG 31023G36KT
Starsze dane

Pobierz naszą aplikację

Łatwy dostęp do całej pogody lotniczej na telefonie komórkowym i tablecie.
Z wieloma funkcjami niedostępnymi na stronie internetowej, takimi jak wsparcie offline i osobista lista lotnisk.

My i osoby trzecie śledzimy twoje zachowanie w internecie na naszej stronie za pomocą plików cookie. Jeśli kontynuujesz, zakładamy, że zgadzasz się z naszą polityką plików cookie. Dowiedz się więcej